createdAt,value
2022-10-31T00:01:34.749Z,35.78
2022-10-31T00:04:01.952Z,35.22
2022-10-31T00:06:29.637Z,37.25
2022-10-31T00:09:03.425Z,37.72
2022-10-31T00:11:31.254Z,35.60
2022-10-31T00:14:00.275Z,47.40
2022-10-31T00:16:29.428Z,51.85
2022-10-31T00:19:01.288Z,45.47
2022-10-31T00:21:29.299Z,46.80
2022-10-31T00:23:56.267Z,52.30
2022-10-31T00:26:23.189Z,43.90
2022-10-31T00:28:50.419Z,47.20
2022-10-31T00:31:17.844Z,56.25
2022-10-31T00:33:45.063Z,49.25
2022-10-31T00:36:16.032Z,53.53
2022-10-31T00:38:44.271Z,47.88
2022-10-31T00:41:12.915Z,50.38
2022-10-31T00:43:39.847Z,51.47
2022-10-31T00:46:06.854Z,51.33
2022-10-31T00:48:33.956Z,50.60
2022-10-31T00:51:00.897Z,47.00
2022-10-31T00:53:27.878Z,52.90
2022-10-31T00:55:54.781Z,51.30
2022-10-31T00:58:21.985Z,46.58
2022-10-31T01:00:56.355Z,51.58
2022-10-31T01:03:30.759Z,47.40
2022-10-31T01:06:07.689Z,47.20
2022-10-31T01:08:37.347Z,46.05
2022-10-31T01:11:12.928Z,49.03
2022-10-31T01:13:41.493Z,50.00
2022-10-31T01:16:12.143Z,47.65
2022-10-31T01:18:39.661Z,44.50
2022-10-31T01:21:14.290Z,51.53
2022-10-31T01:23:41.414Z,54.72
2022-10-31T01:26:37.591Z,53.65
2022-10-31T01:29:08.822Z,54.88
2022-10-31T01:31:39.844Z,52.38
2022-10-31T01:34:07.801Z,63.70
2022-10-31T01:36:38.646Z,50.65
2022-10-31T01:39:15.453Z,63.42
2022-10-31T01:41:50.550Z,66.53
2022-10-31T01:44:17.437Z,62.22
2022-10-31T01:46:55.198Z,69.68
2022-10-31T01:49:36.680Z,72.25
2022-10-31T01:52:19.499Z,65.70
2022-10-31T01:54:55.017Z,65.30
2022-10-31T01:57:23.246Z,57.05
2022-10-31T01:59:57.557Z,69.68
2022-10-31T02:02:26.281Z,97.80
2022-10-31T02:04:54.499Z,79.32
2022-10-31T02:07:55.248Z,70.68
2022-10-31T02:10:24.402Z,90.57
2022-10-31T02:12:56.394Z,112.20
2022-10-31T02:15:23.943Z,130.32
2022-10-31T02:17:51.068Z,71.50
2022-10-31T02:20:23.080Z,77.57
2022-10-31T02:23:16.483Z,77.70
2022-10-31T02:26:20.824Z,73.38
2022-10-31T02:29:32.291Z,70.00
2022-10-31T02:32:15.155Z,60.13
2022-10-31T02:35:19.353Z,69.13
2022-10-31T02:37:52.742Z,63.63
2022-10-31T02:41:11.218Z,70.60
2022-10-31T02:44:13.959Z,73.32
2022-10-31T02:46:54.199Z,60.75
2022-10-31T02:49:54.645Z,96.75
2022-10-31T02:52:31.382Z,73.80
2022-10-31T02:54:58.842Z,64.82
2022-10-31T02:57:30.890Z,78.22
2022-10-31T03:00:07.388Z,111.32
2022-10-31T03:03:11.846Z,95.53
2022-10-31T03:05:50.023Z,114.03
2022-10-31T03:08:30.112Z,163.40
2022-10-31T03:11:04.477Z,89.30
2022-10-31T03:13:54.926Z,84.38
2022-10-31T03:16:51.483Z,65.55
2022-10-31T03:19:35.841Z,64.40
2022-10-31T03:22:22.272Z,70.18
2022-10-31T03:24:51.009Z,78.53
2022-10-31T03:27:25.400Z,104.03
2022-10-31T03:29:57.692Z,65.65
2022-10-31T03:32:42.519Z,78.87
2022-10-31T03:35:12.433Z,74.47
2022-10-31T03:37:42.796Z,76.93
2022-10-31T03:40:14.146Z,81.28
2022-10-31T03:42:49.649Z,63.05
2022-10-31T03:45:27.428Z,59.53
2022-10-31T03:47:56.220Z,73.43
2022-10-31T03:50:29.194Z,83.10
2022-10-31T03:53:10.707Z,74.20
2022-10-31T03:55:50.217Z,87.25
2022-10-31T03:58:28.148Z,74.97
2022-10-31T04:00:58.658Z,87.40
2022-10-31T04:03:32.821Z,75.13
2022-10-31T04:06:06.748Z,97.50
2022-10-31T04:08:41.566Z,94.95
2022-10-31T04:11:13.045Z,64.40
2022-10-31T04:13:43.666Z,90.72
2022-10-31T04:16:15.968Z,80.63
2022-10-31T04:18:45.061Z,166.93
2022-10-31T04:21:11.982Z,92.38
2022-10-31T04:23:38.942Z,204.52
2022-10-31T04:26:05.981Z,127.88
2022-10-31T04:28:34.683Z,88.07
2022-10-31T04:31:01.853Z,103.40
2022-10-31T04:33:28.893Z,84.45
2022-10-31T04:35:55.770Z,129.07
2022-10-31T04:38:22.696Z,150.93
2022-10-31T04:40:49.628Z,205.18
2022-10-31T04:43:16.603Z,154.73
2022-10-31T04:45:43.596Z,109.68
2022-10-31T04:48:10.487Z,189.20
2022-10-31T04:50:37.441Z,124.07
2022-10-31T04:53:04.439Z,137.85
2022-10-31T04:55:31.592Z,116.88
2022-10-31T04:57:59.234Z,184.55
2022-10-31T05:00:26.525Z,138.60
2022-10-31T05:02:56.902Z,87.15
2022-10-31T05:05:27.920Z,156.02
2022-10-31T05:07:56.003Z,128.30
2022-10-31T05:10:27.345Z,85.78
2022-10-31T05:13:00.934Z,196.48
2022-10-31T05:15:29.486Z,70.93
2022-10-31T05:17:57.355Z,137.00
2022-10-31T05:20:29.671Z,98.10
2022-10-31T05:22:58.539Z,101.30
2022-10-31T05:25:29.203Z,92.57
2022-10-31T05:27:57.964Z,70.93
2022-10-31T05:30:31.688Z,58.53
2022-10-31T05:32:59.381Z,96.63
2022-10-31T05:35:30.959Z,77.47
2022-10-31T05:37:58.864Z,250.13
2022-10-31T05:40:27.134Z,100.97
2022-10-31T05:42:56.864Z,93.47
2022-10-31T05:45:24.495Z,78.53
2022-10-31T05:47:57.850Z,98.32
2022-10-31T05:50:27.353Z,88.80
2022-10-31T05:53:12.286Z,154.10
2022-10-31T05:55:40.468Z,62.03
2022-10-31T05:58:07.578Z,79.25
2022-10-31T06:00:36.060Z,108.22
2022-10-31T06:03:06.837Z,126.15
2022-10-31T06:05:34.162Z,68.10
2022-10-31T06:08:01.795Z,108.38
2022-10-31T06:10:29.504Z,68.95
2022-10-31T06:12:56.558Z,61.60
2022-10-31T06:15:24.843Z,77.55
2022-10-31T06:18:06.735Z,80.05
2022-10-31T06:20:34.967Z,109.22
2022-10-31T06:23:02.844Z,90.88
2022-10-31T06:25:30.247Z,76.60
2022-10-31T06:27:57.998Z,73.47
2022-10-31T06:30:25.631Z,99.80
2022-10-31T06:32:52.851Z,83.25
2022-10-31T06:35:20.572Z,90.53
2022-10-31T06:37:55.040Z,108.93
2022-10-31T06:40:22.337Z,101.18
2022-10-31T06:42:58.125Z,75.55
2022-10-31T06:45:25.118Z,136.38
2022-10-31T06:48:16.479Z,88.57
2022-10-31T06:50:43.903Z,133.82
2022-10-31T06:55:43.250Z,223.90
2022-10-31T06:58:12.082Z,149.07
2022-10-31T07:00:39.051Z,110.95
2022-10-31T07:03:13.333Z,132.70
2022-10-31T07:05:41.263Z,142.95
2022-10-31T07:08:12.500Z,99.30
2022-10-31T07:10:41.591Z,109.60
2022-10-31T07:13:14.163Z,150.60
2022-10-31T07:15:43.843Z,89.78
2022-10-31T07:18:13.460Z,99.18
2022-10-31T07:20:40.491Z,111.72
2022-10-31T07:23:07.440Z,94.88
2022-10-31T07:25:34.628Z,85.95
2022-10-31T07:28:02.112Z,98.70
2022-10-31T07:30:29.303Z,78.57
2022-10-31T07:32:56.530Z,92.28
2022-10-31T07:35:27.628Z,93.63
2022-10-31T07:37:58.861Z,107.93
2022-10-31T07:40:26.364Z,78.80
2022-10-31T07:42:54.840Z,75.20
2022-10-31T07:45:22.395Z,79.97
2022-10-31T07:47:52.253Z,106.57
2022-10-31T07:50:29.452Z,81.95
2022-10-31T07:53:05.879Z,75.28
2022-10-31T07:55:33.697Z,75.35
2022-10-31T07:58:23.017Z,70.07
2022-10-31T08:00:50.120Z,96.05
2022-10-31T08:03:20.038Z,81.00
2022-10-31T08:05:47.319Z,73.65
2022-10-31T08:08:15.523Z,68.75
2022-10-31T08:10:43.137Z,104.30
2022-10-31T08:13:13.837Z,114.38
2022-10-31T08:15:42.762Z,78.55
2022-10-31T08:18:16.379Z,67.63
2022-10-31T08:20:44.961Z,94.10
2022-10-31T08:23:14.417Z,110.15
2022-10-31T08:25:42.832Z,99.78
2022-10-31T08:28:12.594Z,114.22
2022-10-31T08:30:41.549Z,118.97
2022-10-31T08:33:15.505Z,85.88
2022-10-31T08:35:43.237Z,92.22
2022-10-31T08:38:13.339Z,83.35
2022-10-31T08:40:40.967Z,106.50
2022-10-31T08:43:14.759Z,83.35
2022-10-31T08:45:43.024Z,78.97
2022-10-31T08:48:16.005Z,73.55
2022-10-31T08:50:44.667Z,85.22
2022-10-31T08:53:20.081Z,108.38
2022-10-31T08:55:48.114Z,86.00
2022-10-31T08:58:18.509Z,105.60
2022-10-31T09:00:47.882Z,111.15
2022-10-31T09:03:25.322Z,108.13
2022-10-31T09:05:57.595Z,94.82
2022-10-31T09:08:24.909Z,95.77
2022-10-31T09:10:52.766Z,93.00
2022-10-31T09:13:28.136Z,94.22
2022-10-31T09:15:58.592Z,110.85
2022-10-31T09:18:28.840Z,113.75
2022-10-31T09:21:00.023Z,119.75
2022-10-31T09:23:27.027Z,93.03
2022-10-31T09:25:55.152Z,91.03
2022-10-31T09:28:25.084Z,89.88
2022-10-31T09:30:54.801Z,81.50
2022-10-31T09:33:22.706Z,108.50
2022-10-31T09:35:49.918Z,88.80
2022-10-31T09:38:22.126Z,110.95
2022-10-31T09:41:27.232Z,92.63
2022-10-31T09:44:06.251Z,91.45
2022-10-31T09:47:04.584Z,92.93
2022-10-31T09:49:38.594Z,92.25
2022-10-31T09:52:32.208Z,113.30
2022-10-31T09:57:52.227Z,92.45
2022-10-31T10:00:23.393Z,81.88
2022-10-31T10:03:05.400Z,97.15
2022-10-31T10:05:50.847Z,83.72
2022-10-31T10:08:26.604Z,80.22
2022-10-31T10:11:46.231Z,96.00
2022-10-31T10:14:43.287Z,77.03
2022-10-31T10:18:03.680Z,81.80
2022-10-31T10:21:02.956Z,78.63
2022-10-31T10:23:54.647Z,77.93
2022-10-31T10:26:44.563Z,69.47
2022-10-31T10:29:41.775Z,65.22
2022-10-31T10:32:26.177Z,67.82
2022-10-31T10:35:10.445Z,69.38
2022-10-31T10:37:44.189Z,61.55
2022-10-31T10:40:20.698Z,68.65
2022-10-31T10:43:24.716Z,68.20
2022-10-31T10:46:19.502Z,65.10
2022-10-31T10:48:53.011Z,60.70
2022-10-31T10:54:44.007Z,65.35
2022-10-31T10:57:35.619Z,62.45
2022-10-31T11:00:20.682Z,61.20
2022-10-31T11:02:49.209Z,60.75
2022-10-31T11:05:36.686Z,67.50
2022-10-31T11:08:05.688Z,61.72
2022-10-31T11:10:34.322Z,52.08
2022-10-31T11:13:10.017Z,52.15
2022-10-31T11:16:10.721Z,51.30
2022-10-31T11:18:48.172Z,46.40
2022-10-31T11:21:28.140Z,47.85
2022-10-31T11:24:16.750Z,48.33
2022-10-31T11:26:47.494Z,52.97
2022-10-31T11:29:26.903Z,54.50
2022-10-31T11:31:59.129Z,54.83
2022-10-31T11:34:46.149Z,56.33
2022-10-31T11:37:26.435Z,53.17
2022-10-31T11:40:05.159Z,76.18
2022-10-31T11:42:41.192Z,55.47
2022-10-31T11:45:20.076Z,58.05
2022-10-31T11:47:56.709Z,70.78
2022-10-31T11:50:38.088Z,83.38
2022-10-31T11:53:15.869Z,59.83
2022-10-31T11:55:43.006Z,57.55
2022-10-31T11:58:36.193Z,75.63
2022-10-31T12:01:03.141Z,55.38
2022-10-31T12:04:03.046Z,74.30
2022-10-31T12:06:40.131Z,69.90
2022-10-31T12:09:31.070Z,59.72
2022-10-31T12:12:06.899Z,62.97
2022-10-31T12:15:10.490Z,70.55
2022-10-31T12:18:14.867Z,65.53
2022-10-31T12:21:21.058Z,66.85
2022-10-31T12:24:15.773Z,68.50
2022-10-31T12:27:00.998Z,71.20
2022-10-31T12:29:57.340Z,67.25
2022-10-31T12:33:15.179Z,57.60
2022-10-31T12:36:25.836Z,61.20
2022-10-31T12:39:42.694Z,64.22
2022-10-31T12:42:12.388Z,80.57
2022-10-31T12:45:00.724Z,75.32
2022-10-31T13:01:25.582Z,73.07
2022-10-31T13:04:31.733Z,68.25
2022-10-31T13:07:15.453Z,67.47
2022-10-31T13:10:01.846Z,55.55
2022-10-31T13:12:36.487Z,58.58
2022-10-31T13:15:24.285Z,55.20
2022-10-31T13:18:24.024Z,51.38
2022-10-31T13:20:55.522Z,48.42
2022-10-31T13:23:50.429Z,50.72
2022-10-31T13:26:51.103Z,50.35
2022-10-31T13:30:23.484Z,53.72
2022-10-31T13:33:09.303Z,47.53
2022-10-31T13:35:58.354Z,46.40
2022-10-31T13:38:35.419Z,44.67
2022-10-31T13:41:05.162Z,45.97
2022-10-31T13:44:09.375Z,50.53
2022-10-31T13:46:40.246Z,48.22
2022-10-31T13:49:31.303Z,152.10
2022-10-31T13:52:13.476Z,57.08
2022-10-31T13:54:49.080Z,45.90
2022-10-31T13:57:44.021Z,45.25
2022-10-31T14:00:20.274Z,39.78
2022-10-31T14:02:55.401Z,40.97
2022-10-31T14:05:34.337Z,42.33
2022-10-31T14:08:05.452Z,39.67
2022-10-31T14:10:40.465Z,35.17
2022-10-31T14:13:35.100Z,42.90
2022-10-31T14:16:07.443Z,36.58
2022-10-31T14:18:40.326Z,42.07
2022-10-31T14:21:32.282Z,39.58
2022-10-31T14:23:59.386Z,39.28
2022-10-31T14:26:30.037Z,43.28
2022-10-31T14:29:15.542Z,40.33
2022-10-31T14:32:13.781Z,39.67
2022-10-31T14:34:51.147Z,41.08
2022-10-31T14:38:17.383Z,40.83
2022-10-31T14:41:05.733Z,42.83
2022-10-31T14:43:56.111Z,42.88
2022-10-31T14:47:10.928Z,47.92
2022-10-31T14:50:09.103Z,39.13
2022-10-31T14:52:39.105Z,38.80
2022-10-31T14:55:13.306Z,39.75
2022-10-31T14:57:58.286Z,38.65
2022-10-31T15:00:28.508Z,38.88
2022-10-31T15:03:15.999Z,47.53
2022-10-31T15:05:57.202Z,44.03
2022-10-31T15:08:39.289Z,43.95
2022-10-31T15:11:15.826Z,40.40
2022-10-31T15:13:52.390Z,42.65
2022-10-31T15:16:43.684Z,47.28
2022-10-31T15:19:22.719Z,47.20
2022-10-31T15:21:54.185Z,43.50
2022-10-31T15:24:23.654Z,51.47
2022-10-31T15:26:54.174Z,46.60
2022-10-31T15:29:25.507Z,50.60
2022-10-31T15:32:01.322Z,41.88
2022-10-31T15:34:44.452Z,44.17
2022-10-31T15:37:18.257Z,40.22
2022-10-31T15:39:47.271Z,43.92
2022-10-31T15:42:22.945Z,45.85
2022-10-31T15:45:13.495Z,47.53
2022-10-31T15:47:48.231Z,44.75
2022-10-31T15:50:38.525Z,48.92
2022-10-31T15:53:45.415Z,49.80
2022-10-31T15:56:23.239Z,53.45
2022-10-31T15:58:53.867Z,47.25
2022-10-31T16:01:33.542Z,44.90
2022-10-31T16:04:07.282Z,51.28
2022-10-31T16:06:36.902Z,49.30
2022-10-31T16:09:22.723Z,47.63
2022-10-31T16:11:50.625Z,49.20
2022-10-31T16:14:25.684Z,47.03
2022-10-31T16:16:58.033Z,44.00
2022-10-31T16:19:37.573Z,44.22
2022-10-31T16:22:14.568Z,46.28
2022-10-31T16:25:07.059Z,41.35
2022-10-31T16:27:38.073Z,44.45
2022-10-31T16:30:42.814Z,41.65
2022-10-31T16:33:37.588Z,42.22
2022-10-31T16:36:35.919Z,41.22
2022-10-31T16:39:04.657Z,49.15
2022-10-31T16:41:35.941Z,39.42
2022-10-31T16:44:06.336Z,46.40
2022-10-31T16:46:33.533Z,81.85
2022-10-31T16:49:00.447Z,80.75
2022-10-31T16:51:27.421Z,85.97
2022-10-31T16:53:54.503Z,82.38
2022-10-31T16:56:37.050Z,72.20
2022-10-31T16:59:15.645Z,76.27
2022-10-31T17:01:49.822Z,69.93
2022-10-31T17:04:16.885Z,82.43
2022-10-31T17:06:43.928Z,109.13
2022-10-31T17:09:10.974Z,87.50
2022-10-31T17:11:49.360Z,62.80
2022-10-31T17:14:18.791Z,56.30
2022-10-31T17:16:45.751Z,52.65
2022-10-31T17:19:13.651Z,42.22
2022-10-31T17:21:41.888Z,44.25
2022-10-31T17:24:14.713Z,45.30
2022-10-31T17:26:42.372Z,41.28
2022-10-31T17:29:09.358Z,38.20
2022-10-31T17:31:39.135Z,34.17
2022-10-31T17:34:13.017Z,68.97
2022-10-31T17:36:40.101Z,62.45
2022-10-31T17:39:09.575Z,47.80
2022-10-31T17:41:36.553Z,79.75
2022-10-31T17:44:03.839Z,52.42
2022-10-31T17:46:30.807Z,57.22
2022-10-31T17:49:12.066Z,69.88
2022-10-31T17:51:41.979Z,49.78
2022-10-31T17:54:24.840Z,47.03
2022-10-31T17:56:58.011Z,62.28
2022-10-31T18:02:00.568Z,65.47
2022-10-31T18:04:28.610Z,44.70
2022-10-31T18:06:55.549Z,40.65
2022-10-31T18:09:22.539Z,33.75
2022-10-31T18:11:49.468Z,33.00
2022-10-31T18:14:16.445Z,33.63
2022-10-31T18:16:43.391Z,37.28
2022-10-31T18:19:18.740Z,36.22
2022-10-31T18:21:46.869Z,30.13
2022-10-31T18:24:14.071Z,30.40
2022-10-31T18:26:41.140Z,29.20
2022-10-31T18:29:08.196Z,33.45
2022-10-31T18:31:35.107Z,52.83
2022-10-31T18:34:02.036Z,32.95
2022-10-31T18:36:29.176Z,36.78
2022-10-31T18:38:56.141Z,45.10
2022-10-31T18:41:23.227Z,54.90
2022-10-31T18:43:50.621Z,55.95
2022-10-31T18:46:18.646Z,49.17
2022-10-31T18:48:46.498Z,30.13
2022-10-31T19:02:26.632Z,34.38
2022-10-31T19:04:53.951Z,34.33
2022-10-31T19:07:22.236Z,33.38
2022-10-31T19:09:49.931Z,34.33
2022-10-31T19:12:17.142Z,34.72
2022-10-31T19:14:44.402Z,32.22
2022-10-31T19:17:12.119Z,36.53
2022-10-31T19:19:41.971Z,34.88
2022-10-31T19:22:09.425Z,35.55
2022-10-31T19:24:38.268Z,34.58
2022-10-31T19:27:06.235Z,35.15
2022-10-31T19:29:35.585Z,33.95
2022-10-31T19:32:03.861Z,32.92
2022-10-31T19:34:33.495Z,33.35
2022-10-31T19:37:01.566Z,35.13
2022-10-31T19:39:29.623Z,34.83
2022-10-31T19:41:57.925Z,32.53
2022-10-31T19:44:26.677Z,32.55
2022-10-31T19:46:54.411Z,34.95
2022-10-31T19:49:22.046Z,34.08
2022-10-31T19:51:50.519Z,33.45
2022-10-31T19:54:18.564Z,32.30
2022-10-31T19:56:46.994Z,33.03
2022-10-31T19:59:15.679Z,37.17
2022-10-31T20:01:43.411Z,33.40
2022-10-31T20:04:11.195Z,36.42
2022-10-31T20:06:41.838Z,32.55
2022-10-31T20:09:15.768Z,33.42
2022-10-31T20:11:45.891Z,35.55
2022-10-31T20:14:17.106Z,35.08
2022-10-31T20:16:46.427Z,35.10
2022-10-31T20:19:14.704Z,34.72
2022-10-31T20:21:43.147Z,40.35
2022-10-31T20:24:13.629Z,43.97
2022-10-31T20:26:43.175Z,48.17
2022-10-31T20:29:19.584Z,50.47
2022-10-31T20:31:48.551Z,41.50
2022-10-31T20:34:16.310Z,37.13
2022-10-31T20:36:44.024Z,41.33
2022-10-31T20:39:11.873Z,37.78
2022-10-31T20:41:39.865Z,40.53
2022-10-31T20:44:08.224Z,39.22
2022-10-31T20:46:37.254Z,31.80
2022-10-31T20:49:05.469Z,36.83
2022-10-31T20:51:33.417Z,35.05
2022-10-31T20:54:02.095Z,39.95
2022-10-31T20:56:30.398Z,36.40
2022-10-31T20:58:58.139Z,39.47
2022-10-31T21:01:30.411Z,36.50
2022-10-31T21:03:59.286Z,38.25
2022-10-31T21:06:27.374Z,35.13
2022-10-31T21:08:56.293Z,35.50
2022-10-31T21:11:26.902Z,34.83
2022-10-31T21:13:54.524Z,32.45
2022-10-31T21:16:33.314Z,35.88
2022-10-31T21:19:02.135Z,33.55
2022-10-31T21:21:37.087Z,31.67
2022-10-31T21:24:08.188Z,33.05
2022-10-31T21:26:40.613Z,34.65
2022-10-31T21:29:10.243Z,32.07
2022-10-31T21:31:39.192Z,30.73
2022-10-31T21:34:07.334Z,31.85
2022-10-31T21:36:36.857Z,34.42
2022-10-31T21:39:07.934Z,36.70
2022-10-31T21:41:36.351Z,34.05
2022-10-31T21:44:05.101Z,37.10
2022-10-31T21:46:35.242Z,37.45
2022-10-31T21:49:04.632Z,33.95
2022-10-31T21:51:35.413Z,35.80
2022-10-31T21:54:21.658Z,36.03
2022-10-31T21:56:49.542Z,37.30
2022-10-31T21:59:17.164Z,38.33
2022-10-31T22:01:44.909Z,33.00
2022-10-31T22:04:12.919Z,35.13
2022-10-31T22:06:40.407Z,34.13
2022-10-31T22:09:11.977Z,37.17
2022-10-31T22:11:40.981Z,42.60
2022-10-31T22:14:12.801Z,42.00
2022-10-31T22:16:41.784Z,42.28
2022-10-31T22:19:13.627Z,47.55
2022-10-31T22:21:49.358Z,46.30
2022-10-31T22:24:19.155Z,40.47
2022-10-31T22:26:46.697Z,40.92
2022-10-31T22:29:19.620Z,46.90
2022-10-31T22:34:25.641Z,42.35
2022-10-31T22:36:56.263Z,41.88
2022-10-31T22:39:24.489Z,35.67
2022-10-31T22:41:53.079Z,39.45
2022-10-31T22:44:20.843Z,41.45
2022-10-31T22:46:49.667Z,40.35
2022-10-31T22:49:17.621Z,36.88
2022-10-31T22:51:47.397Z,34.92
2022-10-31T22:54:18.632Z,37.65
2022-10-31T22:56:47.745Z,37.20
2022-10-31T22:59:17.506Z,35.60
2022-10-31T23:01:46.621Z,35.45
2022-10-31T23:04:16.874Z,34.58
2022-10-31T23:06:44.815Z,37.47
2022-10-31T23:09:17.141Z,35.15
2022-10-31T23:11:46.767Z,34.70
2022-10-31T23:14:21.213Z,38.88
2022-10-31T23:16:52.775Z,34.42
2022-10-31T23:19:28.964Z,35.90
2022-10-31T23:22:04.189Z,35.35
2022-10-31T23:24:45.206Z,35.13
2022-10-31T23:27:21.607Z,35.28
2022-10-31T23:29:58.103Z,41.20
2022-10-31T23:43:55.129Z,41.65
2022-10-31T23:46:22.139Z,42.40
2022-10-31T23:48:49.521Z,44.88
2022-10-31T23:51:17.116Z,46.28
2022-10-31T23:53:48.100Z,41.55
2022-10-31T23:56:15.131Z,41.00
2022-10-31T23:58:42.167Z,38.28
